Time;durP1;ratioP1;P1;durP2;ratioP2;P2;SDS_P1;SDS_P2;PMS_P1;PMS_P2;Temp;Humidity;BMP_temperature;BMP_pressure;BME280_temperature;BME280_humidity;BME280_pressure;Samples;Min_cycle;Max_cycle;Signal;HPM_P1;HPM_P2
2023/10/29 00:00:17;;;;;;;1.95;0.57;;;13.30;99.90;;;;;;5092439;28;20522;-71
2023/10/29 00:02:44;;;;;;;2.00;0.60;;;13.40;99.90;;;;;;5091380;28;20028;-71
2023/10/29 00:05:10;;;;;;;5.38;0.45;;;13.40;99.90;;;;;;5091854;28;20032;-71
2023/10/29 00:07:36;;;;;;;0.50;0.40;;;13.40;99.90;;;;;;5090318;28;20043;-71
2023/10/29 00:10:03;;;;;;;1.35;0.77;;;13.40;99.90;;;;;;5091965;28;20028;-71
2023/10/29 00:12:28;;;;;;;3.05;1.05;;;13.40;99.90;;;;;;5090929;28;20039;-71
2023/10/29 00:14:54;;;;;;;0.88;0.63;;;13.40;99.90;;;;;;5093049;28;20020;-70
2023/10/29 00:17:20;;;;;;;1.10;0.52;;;13.40;99.90;;;;;;5091663;28;20051;-70
2023/10/29 00:19:45;;;;;;;4.85;0.90;;;13.40;99.90;;;;;;5093085;28;20028;-71
2023/10/29 00:22:11;;;;;;;1.55;0.68;;;13.40;99.90;;;;;;5091780;28;20110;-71
2023/10/29 00:24:37;;;;;;;9.07;0.90;;;13.30;99.90;;;;;;5092875;28;20313;-71
2023/10/29 00:27:03;;;;;;;0.50;0.50;;;13.30;99.90;;;;;;5091334;28;20047;-71
2023/10/29 00:29:29;;;;;;;0.55;0.32;;;13.30;99.90;;;;;;5108209;28;20036;-71
2023/10/29 00:31:55;;;;;;;2.95;0.85;;;13.30;99.90;;;;;;5089913;28;20034;-71
2023/10/29 00:34:20;;;;;;;0.68;0.63;;;13.30;99.90;;;;;;5091288;28;20103;-70
2023/10/29 00:36:46;;;;;;;3.00;0.90;;;13.30;99.90;;;;;;5089778;28;20024;-70
2023/10/29 00:39:12;;;;;;;0.75;0.40;;;13.30;99.90;;;;;;5091334;28;20024;-70
2023/10/29 00:41:37;;;;;;;2.45;0.60;;;13.30;99.90;;;;;;5090481;28;20032;-71
2023/10/29 00:44:04;;;;;;;0.98;0.88;;;13.40;99.90;;;;;;5090769;28;20036;-71
2023/10/29 00:46:30;;;;;;;1.80;0.98;;;13.40;99.90;;;;;;5086584;28;20036;-71
2023/10/29 00:48:56;;;;;;;1.63;0.63;;;13.50;99.90;;;;;;5090276;28;20059;-71
2023/10/29 00:51:22;;;;;;;0.47;0.30;;;13.50;99.90;;;;;;5091606;28;20032;-71
2023/10/29 00:53:48;;;;;;;1.13;0.60;;;13.50;99.90;;;;;;5091035;28;20027;-71
2023/10/29 00:56:16;;;;;;;0.70;0.70;;;13.50;99.90;;;;;;5092381;28;20032;-71
2023/10/29 00:58:42;;;;;;;2.30;0.88;;;13.50;99.90;;;;;;5090804;28;20032;-71
2023/10/29 01:01:07;;;;;;;0.50;0.40;;;13.50;99.90;;;;;;5090689;28;20031;-70
2023/10/29 01:03:33;;;;;;;0.68;0.38;;;13.60;99.90;;;;;;5090514;28;20028;-71
2023/10/29 01:05:59;;;;;;;5.18;1.10;;;13.60;99.90;;;;;;5084561;28;20035;-70
2023/10/29 01:08:25;;;;;;;1.15;1.05;;;13.60;99.90;;;;;;5088869;28;20085;-71
2023/10/29 01:10:51;;;;;;;0.80;0.50;;;13.60;99.90;;;;;;5088150;28;20456;-70
2023/10/29 01:13:18;;;;;;;1.92;0.65;;;13.60;99.90;;;;;;5089650;28;20051;-71
2023/10/29 01:15:46;;;;;;;0.70;0.35;;;13.70;99.90;;;;;;5086448;28;20027;-70
2023/10/29 01:18:11;;;;;;;0.80;0.52;;;13.70;99.90;;;;;;5090077;28;20034;-70
2023/10/29 01:20:38;;;;;;;1.60;1.05;;;13.80;99.90;;;;;;5087019;28;20021;-71
2023/10/29 01:23:05;;;;;;;0.65;0.38;;;13.80;99.90;;;;;;5072108;28;20479;-69
2023/10/29 01:25:30;;;;;;;0.32;0.22;;;13.80;99.90;;;;;;5090102;28;20039;-70
2023/10/29 01:27:56;;;;;;;0.55;0.40;;;13.80;99.90;;;;;;5089773;28;20036;-72
2023/10/29 01:30:22;;;;;;;0.35;0.28;;;13.90;99.90;;;;;;5086789;28;20035;-71
2023/10/29 01:32:48;;;;;;;0.35;0.30;;;13.90;99.90;;;;;;5086752;28;20036;-71
2023/10/29 01:35:13;;;;;;;0.40;0.40;;;13.90;99.90;;;;;;5087286;28;20032;-71
2023/10/29 01:37:39;;;;;;;1.63;0.75;;;13.90;99.90;;;;;;5091782;28;20101;-70
2023/10/29 01:40:06;;;;;;;1.00;0.55;;;13.90;99.90;;;;;;5094206;28;20066;-71
2023/10/29 01:42:32;;;;;;;1.42;0.40;;;14.00;99.90;;;;;;5094537;28;20440;-71
2023/10/29 01:44:57;;;;;;;1.85;0.30;;;14.00;99.90;;;;;;5092972;28;20058;-71
2023/10/29 01:47:23;;;;;;;1.20;0.40;;;14.00;99.90;;;;;;5092812;28;20032;-70
2023/10/29 01:49:49;;;;;;;1.95;0.57;;;14.00;99.90;;;;;;5090337;28;20032;-70
2023/10/29 01:52:14;;;;;;;2.00;0.52;;;14.00;99.90;;;;;;5091298;28;20032;-70
2023/10/29 01:54:40;;;;;;;1.27;0.40;;;14.00;99.90;;;;;;5088550;28;20021;-70
2023/10/29 01:57:06;;;;;;;0.93;0.40;;;14.10;99.90;;;;;;5091114;28;20023;-70
2023/10/29 01:59:32;;;;;;;0.50;0.25;;;14.10;99.90;;;;;;5093934;28;20372;-70
2023/10/29 02:01:58;;;;;;;3.08;0.43;;;14.10;99.90;;;;;;5093701;28;20035;-70
2023/10/29 02:04:26;;;;;;;1.52;0.20;;;14.10;99.90;;;;;;5094954;28;20052;-70
2023/10/29 02:06:55;;;;;;;3.10;0.65;;;14.10;99.90;;;;;;5092865;28;20100;-70
2023/10/29 02:09:22;;;;;;;3.80;0.40;;;14.10;99.90;;;;;;5094780;28;20029;-70
2023/10/29 02:11:48;;;;;;;1.30;0.57;;;14.00;99.90;;;;;;5092764;28;20035;-70
2023/10/29 02:14:14;;;;;;;0.55;0.30;;;14.10;99.90;;;;;;5094829;28;20032;-71
2023/10/29 02:16:40;;;;;;;0.60;0.40;;;14.00;99.90;;;;;;5092633;28;20027;-71
2023/10/29 02:19:06;;;;;;;2.92;0.43;;;14.10;99.90;;;;;;5094682;28;20028;-70
2023/10/29 02:21:34;;;;;;;1.20;0.60;;;14.10;99.90;;;;;;5093013;28;20036;-71
2023/10/29 02:24:03;;;;;;;1.80;1.08;;;14.00;99.90;;;;;;5094549;28;20028;-71
2023/10/29 02:26:28;;;;;;;0.17;0.08;;;14.10;99.90;;;;;;5092439;28;20032;-72
2023/10/29 02:28:54;;;;;;;1.02;0.35;;;14.10;99.90;;;;;;5093173;28;20194;-71
2023/10/29 02:31:20;;;;;;;0.47;0.32;;;14.10;99.90;;;;;;5093072;28;20024;-71
2023/10/29 02:33:47;;;;;;;0.65;0.40;;;14.10;99.90;;;;;;5094996;28;20051;-71
2023/10/29 02:36:14;;;;;;;0.63;0.30;;;14.10;99.90;;;;;;5092775;28;20072;-71
2023/10/29 02:38:40;;;;;;;0.68;0.30;;;14.10;99.90;;;;;;5093865;28;20403;-71
2023/10/29 02:41:07;;;;;;;0.82;0.30;;;14.20;99.90;;;;;;5092634;28;20028;-70
2023/10/29 02:43:33;;;;;;;1.92;0.63;;;14.20;99.90;;;;;;5089610;28;20449;-71
2023/10/29 02:46:00;;;;;;;1.75;0.50;;;14.20;99.90;;;;;;5090903;28;20028;-71
2023/10/29 02:48:26;;;;;;;0.30;0.20;;;14.30;99.90;;;;;;5094063;28;20028;-71
2023/10/29 02:50:56;;;;;;;1.33;0.80;;;14.30;99.90;;;;;;5092254;28;20541;-71
2023/10/29 02:53:22;;;;;;;0.20;0.20;;;14.40;99.90;;;;;;5089516;28;20029;-70
2023/10/29 02:55:48;;;;;;;1.20;0.60;;;14.40;99.90;;;;;;5088856;28;20024;-72
2023/10/29 02:58:14;;;;;;;0.43;0.32;;;14.50;99.90;;;;;;5092853;28;20032;-71
2023/10/29 03:00:40;;;;;;;0.90;0.43;;;14.50;99.90;;;;;;5092602;28;20483;-71
2023/10/29 03:03:06;;;;;;;0.40;0.32;;;14.50;99.90;;;;;;5092756;28;20067;-71
2023/10/29 03:05:32;;;;;;;0.65;0.32;;;14.40;99.90;;;;;;5092113;28;20039;-71
2023/10/29 03:07:59;;;;;;;0.40;0.28;;;14.40;99.90;;;;;;5091580;28;20395;-71
2023/10/29 03:10:26;;;;;;;0.75;0.55;;;14.40;99.90;;;;;;5092292;28;20036;-70
2023/10/29 03:12:52;;;;;;;1.75;0.57;;;14.30;99.90;;;;;;5092477;28;20024;-70
2023/10/29 03:15:18;;;;;;;0.93;0.50;;;14.30;99.90;;;;;;5092489;28;20028;-69
2023/10/29 03:17:43;;;;;;;1.75;0.85;;;14.20;99.90;;;;;;5093691;28;20036;-70
2023/10/29 03:20:11;;;;;;;2.88;1.08;;;14.20;99.90;;;;;;5092515;28;20047;-70
2023/10/29 03:22:37;;;;;;;4.95;0.80;;;14.10;99.90;;;;;;5092380;28;20032;-70
2023/10/29 03:25:03;;;;;;;1.45;0.90;;;14.00;99.90;;;;;;5090940;28;20052;-71
2023/10/29 03:27:29;;;;;;;3.10;1.13;;;13.90;99.90;;;;;;5091966;28;20031;-70
2023/10/29 03:29:55;;;;;;;1.65;1.02;;;13.90;99.90;;;;;;5090798;28;20377;-70
2023/10/29 03:32:20;;;;;;;1.85;0.68;;;13.90;99.90;;;;;;5092171;28;20032;-70
2023/10/29 03:34:46;;;;;;;1.73;0.55;;;13.80;99.90;;;;;;5090795;28;20107;-71
2023/10/29 03:37:12;;;;;;;0.98;0.55;;;13.90;99.90;;;;;;5075138;28;20076;-70
2023/10/29 03:39:37;;;;;;;1.33;0.98;;;13.90;99.90;;;;;;5091471;28;20487;-70
2023/10/29 03:42:03;;;;;;;0.43;0.30;;;14.00;99.90;;;;;;5092964;28;20032;-70
2023/10/29 03:44:29;;;;;;;0.55;0.45;;;14.00;99.90;;;;;;5093087;28;20024;-70
2023/10/29 03:46:55;;;;;;;2.65;0.52;;;13.90;99.90;;;;;;5089365;28;20170;-70
2023/10/29 03:49:21;;;;;;;0.95;0.55;;;14.00;99.90;;;;;;5093225;28;20089;-71
2023/10/29 03:51:48;;;;;;;4.40;0.45;;;13.90;99.90;;;;;;5090115;28;20040;-71
2023/10/29 03:54:14;;;;;;;0.63;0.32;;;13.90;99.90;;;;;;5092310;28;20139;-70
2023/10/29 03:56:40;;;;;;;0.98;0.22;;;13.80;99.90;;;;;;5091303;28;20058;-70
2023/10/29 03:59:06;;;;;;;1.75;0.85;;;13.70;99.90;;;;;;5093051;28;20108;-71
2023/10/29 04:01:32;;;;;;;1.10;0.60;;;13.60;99.90;;;;;;5091310;28;20371;-71
2023/10/29 04:03:58;;;;;;;1.95;0.70;;;13.50;99.90;;;;;;5091733;28;20040;-71
2023/10/29 04:06:24;;;;;;;1.08;0.63;;;13.40;99.90;;;;;;5089170;28;20046;-71
2023/10/29 04:08:50;;;;;;;3.22;1.10;;;13.40;99.90;;;;;;5092310;28;20476;-71
2023/10/29 04:11:16;;;;;;;1.08;0.50;;;13.30;99.90;;;;;;5091698;28;20031;-71
2023/10/29 04:13:42;;;;;;;1.00;0.73;;;13.30;99.90;;;;;;5092707;28;20024;-72
2023/10/29 04:16:08;;;;;;;1.95;0.60;;;13.30;99.90;;;;;;5090600;28;20438;-71
2023/10/29 04:18:34;;;;;;;0.40;0.40;;;13.20;99.90;;;;;;5092931;28;20081;-71
2023/10/29 04:21:06;;;;;;;4.15;0.43;;;13.20;99.90;;;;;;5089693;28;20044;-71
2023/10/29 04:23:32;;;;;;;1.70;0.40;;;13.10;99.90;;;;;;5091751;28;20035;-71
2023/10/29 04:25:58;;;;;;;0.28;0.20;;;13.10;99.90;;;;;;5090596;28;20042;-71
2023/10/29 04:28:24;;;;;;;3.30;0.65;;;13.10;99.90;;;;;;5090992;28;20035;-71
2023/10/29 04:30:50;;;;;;;0.63;0.43;;;12.90;99.90;;;;;;5090486;28;20514;-71
2023/10/29 04:33:16;;;;;;;2.88;1.10;;;12.80;99.90;;;;;;5091471;28;20040;-71
2023/10/29 04:35:42;;;;;;;1.40;0.30;;;12.90;99.90;;;;;;5069959;28;20055;-72
2023/10/29 04:38:08;;;;;;;1.00;0.47;;;12.90;99.90;;;;;;5086581;28;20502;-71
2023/10/29 04:40:34;;;;;;;0.65;0.55;;;12.90;99.90;;;;;;5109018;28;20490;-72
2023/10/29 04:42:59;;;;;;;0.65;0.50;;;12.90;99.90;;;;;;5090671;28;20038;-72
2023/10/29 04:45:25;;;;;;;1.33;0.82;;;12.90;99.90;;;;;;5089677;28;20043;-72
2023/10/29 04:47:51;;;;;;;1.38;0.70;;;12.80;99.90;;;;;;5098839;28;20042;-71
2023/10/29 04:50:17;;;;;;;1.20;0.50;;;12.80;99.90;;;;;;5103335;28;20029;-71
2023/10/29 04:52:42;;;;;;;3.13;0.80;;;12.70;99.90;;;;;;5087896;28;20377;-72
2023/10/29 04:55:08;;;;;;;0.93;0.28;;;12.70;99.90;;;;;;5098823;28;20521;-72
2023/10/29 04:57:35;;;;;;;2.63;0.98;;;12.60;99.90;;;;;;5083364;28;20071;-73
2023/10/29 05:00:01;;;;;;;1.17;0.65;;;12.60;99.90;;;;;;5088910;28;20032;-72
2023/10/29 05:02:27;;;;;;;1.52;0.57;;;12.60;99.90;;;;;;5086809;28;20032;-72
2023/10/29 05:04:53;;;;;;;2.60;1.45;;;12.60;99.90;;;;;;5068186;28;20020;-73
2023/10/29 05:07:19;;;;;;;1.88;0.85;;;12.60;99.90;;;;;;5082483;28;20124;-72
2023/10/29 05:09:46;;;;;;;2.47;1.15;;;12.70;99.90;;;;;;5090188;28;20032;-73
2023/10/29 05:12:12;;;;;;;1.80;0.90;;;12.60;99.90;;;;;;5094140;28;20076;-72
2023/10/29 05:14:38;;;;;;;0.65;0.47;;;12.60;99.90;;;;;;5095331;28;20112;-72
2023/10/29 05:17:04;;;;;;;2.03;0.93;;;12.70;99.90;;;;;;5092546;28;20024;-72
2023/10/29 05:19:29;;;;;;;0.40;0.20;;;12.60;99.90;;;;;;5100865;28;20040;-71
2023/10/29 05:21:55;;;;;;;0.63;0.57;;;12.60;99.90;;;;;;5096890;28;20036;-72
2023/10/29 05:24:21;;;;;;;1.63;0.85;;;12.60;99.90;;;;;;5097093;28;20028;-71
2023/10/29 05:26:47;;;;;;;0.90;0.43;;;12.60;99.90;;;;;;5090693;28;20476;-71
2023/10/29 05:29:12;;;;;;;1.27;0.40;;;12.60;99.90;;;;;;5099740;28;20032;-71
2023/10/29 05:31:38;;;;;;;0.88;0.32;;;12.50;99.90;;;;;;5076859;28;20480;-72
2023/10/29 05:34:04;;;;;;;1.83;0.40;;;12.60;99.90;;;;;;5102240;28;20762;-72
2023/10/29 05:36:30;;;;;;;1.45;0.75;;;12.60;99.90;;;;;;5094259;28;20035;-72
2023/10/29 05:38:56;;;;;;;0.55;0.30;;;12.60;99.90;;;;;;5099650;28;20058;-73
2023/10/29 05:41:22;;;;;;;1.65;0.93;;;12.60;99.90;;;;;;5104543;28;20062;-71
2023/10/29 05:43:48;;;;;;;0.30;0.22;;;12.60;99.90;;;;;;5075035;28;20110;-70
2023/10/29 05:46:15;;;;;;;0.85;0.52;;;12.70;99.90;;;;;;5086736;28;20547;-72
2023/10/29 05:48:41;;;;;;;0.38;0.38;;;12.70;99.90;;;;;;5089450;28;20036;-71
2023/10/29 05:51:12;;;;;;;0.88;0.40;;;12.80;99.90;;;;;;5087049;28;20054;-72
2023/10/29 05:53:39;;;;;;;;;;;12.80;99.90;;;;;;5090061;28;20047;-72
2023/10/29 05:56:05;;;;;;;1.13;0.60;;;12.90;99.90;;;;;;5088672;28;19930;-72
2023/10/29 05:58:33;;;;;;;1.33;0.80;;;12.90;99.90;;;;;;5090279;28;20020;-72
2023/10/29 06:00:59;;;;;;;0.40;0.28;;;13.00;99.90;;;;;;5086870;28;20097;-72
2023/10/29 06:03:25;;;;;;;1.45;0.65;;;13.00;99.90;;;;;;5085644;28;20083;-72
2023/10/29 06:05:52;;;;;;;1.20;0.93;;;13.00;99.90;;;;;;5088290;28;20437;-72
2023/10/29 06:08:18;;;;;;;1.23;0.45;;;12.90;99.90;;;;;;5088567;28;20062;-71
2023/10/29 06:10:44;;;;;;;5.53;0.35;;;12.90;99.90;;;;;;5088066;28;20052;-71
2023/10/29 06:13:09;;;;;;;1.73;0.73;;;12.90;99.90;;;;;;5088062;28;20124;-70
2023/10/29 06:15:36;;;;;;;0.68;0.35;;;12.80;99.90;;;;;;5099402;28;20038;-70
2023/10/29 06:18:04;;;;;;;0.20;0.20;;;12.80;99.90;;;;;;5088674;28;20024;-71
2023/10/29 06:20:30;;;;;;;0.50;0.38;;;12.80;99.90;;;;;;5099528;28;20042;-70
2023/10/29 06:22:56;;;;;;;1.05;0.70;;;12.90;99.90;;;;;;5096920;28;20238;-71
2023/10/29 06:25:21;;;;;;;0.43;0.35;;;13.10;99.90;;;;;;5088648;28;20032;-71
2023/10/29 06:27:47;;;;;;;1.13;0.57;;;13.40;99.90;;;;;;5084651;28;20032;-71
2023/10/29 06:30:13;;;;;;;0.90;0.65;;;13.40;99.90;;;;;;5090534;28;20036;-72
2023/10/29 06:32:40;;;;;;;0.65;0.30;;;13.40;99.90;;;;;;5085278;28;20025;-72
2023/10/29 06:35:06;;;;;;;1.27;0.50;;;13.30;99.90;;;;;;5080041;28;20499;-71
2023/10/29 06:37:32;;;;;;;0.82;0.57;;;13.30;99.90;;;;;;5085777;28;20024;-71
2023/10/29 06:39:58;;;;;;;0.93;0.40;;;13.30;99.90;;;;;;5088184;28;20028;-70
2023/10/29 06:42:23;;;;;;;0.98;0.55;;;13.20;99.90;;;;;;5090065;28;20031;-72
2023/10/29 06:44:49;;;;;;;0.57;0.38;;;13.00;99.90;;;;;;5101652;28;20047;-71
2023/10/29 06:47:15;;;;;;;2.15;0.20;;;13.00;99.90;;;;;;5092023;28;20043;-71
2023/10/29 06:49:44;;;;;;;1.38;0.38;;;13.00;99.90;;;;;;5094691;28;20032;-71
2023/10/29 06:52:10;;;;;;;0.73;0.50;;;13.00;99.90;;;;;;5091188;28;20098;-71
2023/10/29 06:54:36;;;;;;;1.83;0.77;;;13.00;99.90;;;;;;5092808;28;20081;-72
2023/10/29 06:57:04;;;;;;;2.28;0.73;;;12.90;99.90;;;;;;5087822;28;20028;-73
2023/10/29 06:59:30;;;;;;;4.00;0.77;;;12.90;99.90;;;;;;5090793;28;20488;-72
2023/10/29 07:01:59;;;;;;;0.65;0.50;;;12.80;99.90;;;;;;5089383;28;20027;-72
2023/10/29 07:04:28;;;;;;;0.60;0.40;;;12.80;99.90;;;;;;5097437;28;20036;-72
2023/10/29 07:06:54;;;;;;;2.58;0.85;;;12.70;99.90;;;;;;5098940;28;20054;-72
2023/10/29 07:09:19;;;;;;;5.78;1.50;;;12.80;99.90;;;;;;5097720;28;20484;-72
2023/10/29 07:11:45;;;;;;;1.50;1.13;;;12.80;99.90;;;;;;5091004;28;20028;-72
2023/10/29 07:14:12;;;;;;;0.82;0.57;;;12.80;99.90;;;;;;5094636;28;20023;-72
2023/10/29 07:16:44;;;;;;;2.58;0.90;;;12.80;99.90;;;;;;5090399;28;20025;-72
2023/10/29 07:19:11;;;;;;;1.55;0.95;;;12.80;99.90;;;;;;5104994;27;20383;-71
2023/10/29 07:21:37;;;;;;;8.25;1.38;;;12.80;99.90;;;;;;5099193;28;20749;-72
2023/10/29 07:24:05;;;;;;;2.25;0.95;;;12.90;99.90;;;;;;5105680;28;20547;-70
2023/10/29 07:26:32;;;;;;;2.67;1.35;;;12.90;99.90;;;;;;5090841;28;20407;-70
2023/10/29 07:28:59;;;;;;;1.17;0.85;;;12.90;99.90;;;;;;5075255;28;20046;-69
2023/10/29 07:31:25;;;;;;;0.80;0.60;;;12.80;99.90;;;;;;5092942;28;20120;-70
2023/10/29 07:33:52;;;;;;;1.92;0.63;;;12.80;99.90;;;;;;5100803;28;20107;-70
2023/10/29 07:36:20;;;;;;;1.00;0.70;;;12.70;99.90;;;;;;5081334;28;20032;-70
2023/10/29 07:38:46;;;;;;;0.65;0.50;;;12.70;99.90;;;;;;5108668;28;20092;-71
2023/10/29 07:41:16;;;;;;;3.33;1.17;;;12.60;99.90;;;;;;5100536;28;20360;-71
2023/10/29 07:43:42;;;;;;;0.93;0.57;;;12.60;99.90;;;;;;5099790;28;20053;-71
2023/10/29 07:46:08;;;;;;;0.47;0.40;;;12.50;99.90;;;;;;5098849;28;20028;-71
2023/10/29 07:48:34;;;;;;;4.13;1.48;;;12.50;99.90;;;;;;5096874;28;20028;-71
2023/10/29 07:50:59;;;;;;;6.60;1.73;;;12.50;99.90;;;;;;5107083;28;20119;-70
2023/10/29 07:53:28;;;;;;;1.63;0.65;;;12.50;99.90;;;;;;5086588;28;20364;-71
2023/10/29 07:55:53;;;;;;;1.33;0.85;;;12.50;99.90;;;;;;5107175;28;20376;-71
2023/10/29 07:58:19;;;;;;;3.63;0.85;;;12.50;99.90;;;;;;5089919;28;20024;-71
2023/10/29 08:00:45;;;;;;;1.02;0.57;;;12.50;99.90;;;;;;5104589;28;20032;-71
2023/10/29 08:03:10;;;;;;;2.78;0.82;;;12.60;99.90;;;;;;5087712;28;20027;-71
2023/10/29 08:05:36;;;;;;;0.93;0.60;;;12.70;99.90;;;;;;5105890;28;20039;-71
2023/10/29 08:08:02;;;;;;;0.77;0.43;;;12.80;99.90;;;;;;5085794;28;20040;-70
2023/10/29 08:10:28;;;;;;;2.33;1.02;;;12.80;99.90;;;;;;5104464;28;20028;-71
2023/10/29 08:12:53;;;;;;;3.45;1.17;;;12.80;99.90;;;;;;5094398;28;20028;-70
2023/10/29 08:15:19;;;;;;;5.70;0.85;;;12.80;99.90;;;;;;5097052;28;20447;-70
2023/10/29 08:17:45;;;;;;;3.30;0.93;;;12.70;99.90;;;;;;5103493;28;20036;-69
2023/10/29 08:20:11;;;;;;;1.05;0.73;;;12.70;99.90;;;;;;5102834;28;20031;-69
2023/10/29 08:22:37;;;;;;;0.85;0.43;;;12.70;99.90;;;;;;5096640;28;20020;-70
2023/10/29 08:25:03;;;;;;;1.13;0.43;;;12.70;99.90;;;;;;5107227;28;20043;-68
2023/10/29 08:27:29;;;;;;;3.20;0.60;;;12.80;99.90;;;;;;5078101;28;20038;-69
2023/10/29 08:29:56;;;;;;;1.42;0.73;;;12.80;99.90;;;;;;5097422;28;20031;-69
2023/10/29 08:32:21;;;;;;;1.70;0.82;;;12.80;99.90;;;;;;5097877;28;20020;-72
2023/10/29 08:34:47;;;;;;;1.15;0.80;;;12.80;99.90;;;;;;5094126;28;20034;-69
2023/10/29 08:37:13;;;;;;;1.65;0.60;;;12.90;99.90;;;;;;5098733;28;20063;-69
2023/10/29 08:39:39;;;;;;;0.65;0.43;;;12.80;99.90;;;;;;5105698;28;20039;-69
2023/10/29 08:42:05;;;;;;;0.90;0.73;;;12.80;99.90;;;;;;5092996;28;20028;-69
2023/10/29 08:44:31;;;;;;;2.17;0.77;;;12.80;99.90;;;;;;5090053;28;20110;-68
2023/10/29 08:46:57;;;;;;;1.48;0.45;;;12.80;99.90;;;;;;5087071;28;20440;-69
2023/10/29 08:49:23;;;;;;;1.95;0.60;;;12.90;99.90;;;;;;5098456;28;20498;-69
2023/10/29 08:51:50;;;;;;;2.45;0.95;;;12.90;99.90;;;;;;5103438;28;20115;-69
2023/10/29 08:54:15;;;;;;;2.97;0.60;;;13.00;99.90;;;;;;5092878;28;20062;-69
2023/10/29 08:56:41;;;;;;;2.55;0.98;;;13.00;99.90;;;;;;5107263;28;20448;-70
2023/10/29 08:59:07;;;;;;;0.22;0.20;;;13.10;99.90;;;;;;5099834;28;20499;-69
2023/10/29 09:01:33;;;;;;;0.47;0.43;;;13.10;99.90;;;;;;5105335;28;20114;-69
2023/10/29 09:04:01;;;;;;;0.90;0.47;;;13.10;99.90;;;;;;5094003;28;20116;-69
2023/10/29 09:06:27;;;;;;;0.63;0.40;;;13.10;99.90;;;;;;5096875;28;20042;-68
2023/10/29 09:08:52;;;;;;;1.02;0.80;;;13.10;99.90;;;;;;5087479;28;20043;-69
2023/10/29 09:11:18;;;;;;;0.73;0.45;;;13.10;99.90;;;;;;5094584;28;20028;-68
2023/10/29 09:13:44;;;;;;;3.00;0.77;;;13.10;99.90;;;;;;5092771;28;20060;-69
2023/10/29 09:16:10;;;;;;;1.92;0.70;;;13.10;99.90;;;;;;5089479;28;20391;-69
2023/10/29 09:18:36;;;;;;;7.97;0.60;;;13.10;99.90;;;;;;5084076;28;20028;-69
2023/10/29 09:21:03;;;;;;;1.08;0.60;;;13.30;99.90;;;;;;5099824;28;20395;-68
2023/10/29 09:23:29;;;;;;;0.90;0.50;;;13.30;99.90;;;;;;5089520;28;20037;-69
2023/10/29 09:25:59;;;;;;;0.90;0.50;;;13.30;99.90;;;;;;5102687;28;20027;-69
2023/10/29 09:28:26;;;;;;;1.17;0.45;;;13.30;99.90;;;;;;5099670;28;20122;-69
2023/10/29 09:30:52;;;;;;;0.70;0.38;;;13.30;99.90;;;;;;5107245;28;20024;-69
2023/10/29 09:33:18;;;;;;;0.88;0.45;;;13.30;99.90;;;;;;5101367;28;20429;-69
2023/10/29 09:35:43;;;;;;;0.50;0.40;;;13.40;99.90;;;;;;5090527;28;20692;-69
2023/10/29 09:38:09;;;;;;;0.40;0.30;;;13.40;99.90;;;;;;5094812;28;20035;-69
2023/10/29 09:40:36;;;;;;;4.10;0.55;;;13.40;99.90;;;;;;5110158;28;20119;-69
2023/10/29 09:43:05;;;;;;;0.75;0.40;;;13.40;99.90;;;;;;5088428;28;20056;-69
2023/10/29 09:45:37;;;;;;;3.03;0.43;;;13.40;99.90;;;;;;5109574;28;20035;-69
2023/10/29 09:48:03;;;;;;;1.77;1.02;;;13.30;99.90;;;;;;5100985;28;20035;-70
2023/10/29 09:50:29;;;;;;;1.10;0.38;;;13.20;99.90;;;;;;5105656;28;20152;-69
2023/10/29 09:52:55;;;;;;;5.60;0.82;;;13.10;99.90;;;;;;5087201;28;20028;-72
2023/10/29 09:55:22;;;;;;;1.58;0.93;;;13.00;99.90;;;;;;5103902;28;20027;-69
2023/10/29 09:57:49;;;;;;;0.43;0.40;;;13.00;99.90;;;;;;5090029;28;20028;-70
2023/10/29 10:00:16;;;;;;;2.83;0.98;;;12.90;99.90;;;;;;5092929;28;20548;-71
2023/10/29 10:02:53;;;;;;;7.47;0.90;;;12.90;99.90;;;;;;5099911;28;20032;-72
2023/10/29 10:05:21;;;;;;;0.22;0.22;;;12.90;99.90;;;;;;5082116;28;20028;-71
2023/10/29 10:07:54;;;;;;;0.95;0.80;;;12.80;99.90;;;;;;5095257;28;20060;-70
2023/10/29 10:10:21;;;;;;;1.77;0.82;;;12.80;99.90;;;;;;5086185;28;20033;-70
2023/10/29 10:12:51;;;;;;;0.60;0.45;;;12.80;99.90;;;;;;5091616;28;20052;-71
2023/10/29 10:15:19;;;;;;;0.40;0.40;;;12.80;99.90;;;;;;5097150;28;20039;-71
2023/10/29 10:17:56;;;;;;;0.75;0.52;;;12.80;99.90;;;;;;5097480;28;20514;-71
2023/10/29 10:20:22;;;;;;;0.80;0.73;;;12.80;99.90;;;;;;5088937;28;20063;-70
2023/10/29 10:23:00;;;;;;;1.30;0.70;;;12.80;99.90;;;;;;5083066;28;20380;-70
2023/10/29 10:25:32;;;;;;;1.98;0.82;;;12.80;99.90;;;;;;5089011;28;20456;-71
2023/10/29 10:28:00;;;;;;;2.17;0.45;;;12.80;99.90;;;;;;5084634;28;20032;-71
2023/10/29 10:30:38;;;;;;;1.88;0.93;;;12.90;99.90;;;;;;5098590;28;20031;-71
2023/10/29 10:33:12;;;;;;;0.75;0.50;;;12.90;99.90;;;;;;5074727;28;20028;-72
2023/10/29 10:35:54;;;;;;;1.45;1.02;;;13.00;99.90;;;;;;5100716;28;20100;-71
2023/10/29 10:38:20;;;;;;;1.77;1.10;;;13.00;99.90;;;;;;5089513;28;20043;-71
2023/10/29 10:40:55;;;;;;;2.38;1.20;;;13.10;99.90;;;;;;5092656;28;20115;-70
2023/10/29 10:43:21;;;;;;;4.07;0.90;;;13.20;99.90;;;;;;5092032;28;20028;-71
2023/10/29 10:45:50;;;;;;;1.67;0.90;;;13.20;99.90;;;;;;5087522;28;20372;-71
2023/10/29 10:48:17;;;;;;;0.40;0.40;;;13.30;99.90;;;;;;5069427;28;20028;-72
2023/10/29 10:50:44;;;;;;;5.15;1.20;;;13.20;99.90;;;;;;5100671;28;20028;-71
2023/10/29 10:53:10;;;;;;;0.65;0.47;;;13.20;99.90;;;;;;5101450;28;20139;-70
2023/10/29 10:55:37;;;;;;;0.70;0.40;;;13.30;99.90;;;;;;5104377;28;20028;-71
2023/10/29 10:58:04;;;;;;;0.80;0.57;;;13.30;99.90;;;;;;5086172;28;20365;-71
2023/10/29 11:00:34;;;;;;;0.88;0.82;;;13.40;99.90;;;;;;5089975;28;20027;-71
2023/10/29 11:03:02;;;;;;;2.75;0.68;;;13.40;99.90;;;;;;5095093;28;20095;-70
2023/10/29 11:05:32;;;;;;;3.22;1.00;;;13.50;99.90;;;;;;5103596;28;20060;-69
2023/10/29 11:07:58;;;;;;;1.55;0.93;;;13.50;99.90;;;;;;5093089;28;20035;-70
2023/10/29 11:10:28;;;;;;;2.72;0.90;;;13.50;99.90;;;;;;5112759;28;20019;-71
2023/10/29 11:12:54;;;;;;;3.42;0.88;;;13.60;99.90;;;;;;5104425;28;20032;-70
2023/10/29 11:15:23;;;;;;;0.93;0.57;;;13.60;99.90;;;;;;5090557;28;20128;-70
2023/10/29 11:18:00;;;;;;;0.93;0.80;;;13.60;99.90;;;;;;5089829;28;20024;-69
2023/10/29 11:20:56;;;;;;;1.67;0.60;;;13.70;99.90;;;;;;5089765;28;20480;-68
2023/10/29 11:23:30;;;;;;;1.50;1.08;;;13.90;99.90;;;;;;5089840;28;20417;-70
2023/10/29 11:26:27;;;;;;;2.38;0.88;;;14.00;99.90;;;;;;5098545;28;20031;-70
2023/10/29 11:28:53;;;;;;;2.70;1.23;;;14.20;99.90;;;;;;5086398;28;20044;-70
2023/10/29 11:31:21;;;;;;;2.85;1.35;;;14.20;99.90;;;;;;5102551;28;21614;-71
2023/10/29 11:34:07;;;;;;;2.22;1.08;;;14.40;99.90;;;;;;5075926;28;20028;-70
2023/10/29 11:36:39;;;;;;;0.68;0.60;;;14.70;99.90;;;;;;5087319;28;20035;-70
2023/10/29 11:39:18;;;;;;;3.80;2.40;;;15.00;99.90;;;;;;5098815;28;20043;-71
2023/10/29 11:41:46;;;;;;;3.72;0.50;;;15.00;99.90;;;;;;5106727;28;20360;-71
2023/10/29 11:44:23;;;;;;;0.68;0.55;;;14.70;99.90;;;;;;5100962;28;20031;-71
2023/10/29 11:46:58;;;;;;;0.80;0.47;;;14.70;99.90;;;;;;5088303;28;20056;-71
2023/10/29 11:49:27;;;;;;;4.22;0.90;;;14.80;99.90;;;;;;5099380;28;20035;-70
2023/10/29 11:52:01;;;;;;;0.82;0.60;;;14.80;99.90;;;;;;5103794;28;20031;-71
2023/10/29 11:54:29;;;;;;;2.13;0.90;;;14.80;99.90;;;;;;5106726;28;20333;-70
2023/10/29 11:56:57;;;;;;;1.05;0.70;;;14.70;99.90;;;;;;5110980;28;20104;-71
2023/10/29 11:59:23;;;;;;;0.65;0.30;;;14.90;99.90;;;;;;5096762;28;20102;-70
2023/10/29 12:01:49;;;;;;;1.30;0.95;;;14.90;99.90;;;;;;5090025;28;20441;-71
2023/10/29 12:04:15;;;;;;;1.85;0.60;;;15.20;99.90;;;;;;5086939;28;20041;-71
2023/10/29 12:06:46;;;;;;;1.73;0.70;;;15.40;99.90;;;;;;5087497;28;20040;-70
2023/10/29 12:09:19;;;;;;;;;;;15.90;99.90;;;;;;5088096;28;20027;-70
2023/10/29 12:11:49;;;;;;;1.10;0.63;;;17.00;99.90;;;;;;5115729;27;19965;-70
2023/10/29 12:14:15;;;;;;;1.17;0.45;;;17.00;99.90;;;;;;5103757;28;20062;-70
2023/10/29 12:16:41;;;;;;;1.15;0.40;;;17.50;99.90;;;;;;5111071;28;20367;-68
2023/10/29 12:19:07;;;;;;;1.50;0.77;;;17.20;99.90;;;;;;5103455;28;20031;-69
2023/10/29 12:21:33;;;;;;;3.70;0.90;;;16.80;99.90;;;;;;5104556;28;20027;-69
2023/10/29 12:24:01;;;;;;;5.38;0.85;;;16.60;99.90;;;;;;5092860;28;20025;-70
2023/10/29 12:26:30;;;;;;;3.50;0.68;;;16.80;99.90;;;;;;5094043;28;20546;-69
2023/10/29 12:28:56;;;;;;;0.77;0.40;;;16.70;99.90;;;;;;5084997;28;20036;-69
2023/10/29 12:31:26;;;;;;;1.10;0.57;;;16.40;99.90;;;;;;5100800;28;20039;-70
2023/10/29 12:33:59;;;;;;;1.17;1.00;;;16.00;99.90;;;;;;5087947;28;20027;-70
2023/10/29 12:36:26;;;;;;;2.40;0.95;;;15.90;99.90;;;;;;5097183;28;20092;-70
2023/10/29 12:38:53;;;;;;;2.30;1.17;;;15.80;99.90;;;;;;5101737;28;20035;-68
2023/10/29 12:41:27;;;;;;;2.35;0.47;;;15.70;99.90;;;;;;5094659;28;20628;-70
2023/10/29 12:43:53;;;;;;;1.70;0.68;;;15.50;99.90;;;;;;5096745;28;20034;-70
2023/10/29 12:46:24;;;;;;;3.30;0.68;;;15.50;99.90;;;;;;5103592;28;20384;-70